Time;durP1;ratioP1;P1;durP2;ratioP2;P2;SDS_P1;SDS_P2;PMS_P1;PMS_P2;Temp;Humidity;BMP_temperature;BMP_pressure;BME280_temperature;BME280_humidity;BME280_pressure;Samples;Min_cycle;Max_cycle;Signal;HPM_P1;HPM_P2
2023/10/06 00:02:33;;;;;;;373.67;136.90;;;;;15.80;97723.00;;;;5080338;28;20236;-71
2023/10/06 00:05:23;;;;;;;380.93;142.07;;;;;15.80;97730.00;;;;5078376;28;20226;-71
2023/10/06 00:08:16;;;;;;;375.00;141.97;;;;;15.60;97723.00;;;;5086211;28;20214;-71
2023/10/06 00:11:11;;;;;;;373.50;140.50;;;;;15.40;97732.00;;;;5081152;28;20228;-71
2023/10/06 00:14:07;;;;;;;374.00;138.93;;;;;15.30;97743.00;;;;5082652;28;20211;-70
2023/10/06 00:16:59;;;;;;;370.87;138.23;;;;;15.20;97747.00;;;;5076125;28;20227;-71
2023/10/06 00:19:51;;;;;;;377.90;141.03;;;;;15.10;97754.00;;;;5083561;28;20210;-71
2023/10/06 00:22:40;;;;;;;371.97;137.07;;;;;15.30;97765.00;;;;5072580;28;20218;-71
2023/10/06 00:25:32;;;;;;;373.17;137.83;;;;;15.50;97766.00;;;;5083979;28;20694;-71
2023/10/06 00:28:26;;;;;;;382.97;149.80;;;;;15.50;97762.00;;;;5082814;28;20200;-71
2023/10/06 00:31:15;;;;;;;383.13;144.63;;;;;15.20;97744.00;;;;5088959;28;20234;-71
2023/10/06 00:34:04;;;;;;;375.60;139.07;;;;;15.50;97753.00;;;;5084449;28;20254;-71
2023/10/06 00:36:54;;;;;;;372.77;136.40;;;;;15.60;97746.00;;;;5088381;28;20633;-71
2023/10/06 00:39:44;;;;;;;381.17;144.40;;;;;15.40;97748.00;;;;5086569;28;20196;-71
2023/10/06 00:42:33;;;;;;;380.10;141.50;;;;;15.00;97749.00;;;;5079507;28;20204;-72
2023/10/06 00:45:25;;;;;;;379.30;141.77;;;;;15.20;97745.00;;;;5082351;28;20604;-70
2023/10/06 00:48:15;;;;;;;379.00;143.87;;;;;15.10;97744.00;;;;5076079;28;20211;-70
2023/10/06 00:51:05;;;;;;;370.10;134.67;;;;;15.70;97741.00;;;;5084823;28;20226;-71
2023/10/06 00:53:56;;;;;;;372.80;136.53;;;;;15.80;97749.00;;;;5080659;28;20203;-70
2023/10/06 00:56:46;;;;;;;370.93;137.20;;;;;15.60;97748.00;;;;5078952;28;20219;-71
2023/10/06 00:59:36;;;;;;;373.07;136.50;;;;;15.20;97739.00;;;;5093106;28;20199;-71
2023/10/06 01:02:26;;;;;;;380.73;141.07;;;;;15.40;97750.00;;;;5091254;28;20203;-71
2023/10/06 01:05:16;;;;;;;381.87;141.93;;;;;15.50;97747.00;;;;5083791;28;20236;-71
2023/10/06 01:08:07;;;;;;;373.70;141.37;;;;;15.50;97754.00;;;;5077728;28;20215;-71
2023/10/06 01:11:11;;;;;;;369.27;137.30;;;;;15.50;97749.00;;;;5081190;28;20200;-71
2023/10/06 01:14:00;;;;;;;375.00;143.03;;;;;15.40;97751.00;;;;5074181;28;20209;-71
2023/10/06 01:16:50;;;;;;;372.33;141.93;;;;;15.20;97754.00;;;;5077161;28;20525;-71
2023/10/06 01:19:47;;;;;;;376.17;138.03;;;;;15.30;97762.00;;;;5083094;28;20196;-71
2023/10/06 01:22:43;;;;;;;371.63;134.13;;;;;15.40;97778.00;;;;5084821;28;20195;-71
2023/10/06 01:25:34;;;;;;;365.70;131.33;;;;;15.30;97782.00;;;;5080669;28;20256;-70
2023/10/06 01:28:24;;;;;;;381.90;147.47;;;;;15.30;97778.00;;;;5080712;28;20280;-71
2023/10/06 01:31:14;;;;;;;377.87;138.27;;;;;15.40;97781.00;;;;5082218;28;20307;-70
2023/10/06 01:34:07;;;;;;;367.93;137.23;;;;;15.20;97773.00;;;;5079066;28;20278;-71
2023/10/06 01:36:57;;;;;;;353.10;126.97;;;;;15.40;97778.00;;;;5086780;28;20238;-71
2023/10/06 01:39:48;;;;;;;379.10;142.13;;;;;15.60;97775.00;;;;5078495;28;20204;-71
2023/10/06 01:42:37;;;;;;;364.43;131.00;;;;;15.10;97769.00;;;;5076657;28;20191;-71
2023/10/06 01:45:28;;;;;;;373.70;134.40;;;;;14.90;97776.00;;;;5079223;28;20227;-71
2023/10/06 01:48:23;;;;;;;353.37;121.90;;;;;15.00;97782.00;;;;5074043;28;20211;-71
2023/10/06 01:51:15;;;;;;;378.60;141.93;;;;;15.10;97776.00;;;;5085089;28;20210;-71
2023/10/06 01:54:05;;;;;;;372.73;140.83;;;;;14.90;97781.00;;;;5083901;28;20203;-71
2023/10/06 01:56:56;;;;;;;373.23;137.10;;;;;14.90;97774.00;;;;5071258;28;20231;-71
2023/10/06 01:59:45;;;;;;;378.97;142.80;;;;;14.60;97776.00;;;;5080337;28;20200;-72
2023/10/06 02:02:34;;;;;;;368.77;134.83;;;;;15.00;97780.00;;;;5085502;28;20716;-71
2023/10/06 02:05:23;;;;;;;378.03;140.13;;;;;15.00;97780.00;;;;5079080;28;20223;-71
2023/10/06 02:08:14;;;;;;;372.37;131.00;;;;;14.90;97773.00;;;;5071770;28;20207;-71
2023/10/06 02:11:04;;;;;;;373.97;136.90;;;;;15.40;97777.00;;;;5079387;28;20196;-71
2023/10/06 02:13:55;;;;;;;372.37;136.33;;;;;15.60;97777.00;;;;5087020;28;20659;-71
2023/10/06 02:16:44;;;;;;;370.37;138.70;;;;;15.50;97789.00;;;;5080353;28;20220;-71
2023/10/06 02:19:34;;;;;;;372.03;136.93;;;;;15.60;97792.00;;;;5079031;28;20203;-71
2023/10/06 02:22:23;;;;;;;382.23;145.53;;;;;15.70;97795.00;;;;5080924;28;20200;-71
2023/10/06 02:25:12;;;;;;;382.67;142.33;;;;;15.70;97802.00;;;;5080645;28;20227;-71
2023/10/06 02:28:04;;;;;;;369.37;132.17;;;;;15.70;97802.00;;;;5083021;28;20581;-71
2023/10/06 02:30:55;;;;;;;372.17;138.13;;;;;15.60;97794.00;;;;5078658;28;20211;-71
2023/10/06 02:33:48;;;;;;;372.40;138.47;;;;;15.60;97801.00;;;;5078076;28;20202;-71
2023/10/06 02:36:38;;;;;;;373.90;140.80;;;;;15.40;97807.00;;;;5080632;28;20231;-71
2023/10/06 02:39:31;;;;;;;375.93;142.47;;;;;15.00;97800.00;;;;5087814;28;20200;-71
2023/10/06 02:42:21;;;;;;;383.10;144.37;;;;;14.70;97800.00;;;;5080983;28;20574;-71
2023/10/06 02:45:16;;;;;;;384.57;144.50;;;;;14.50;97800.00;;;;5080373;28;20246;-71
2023/10/06 02:48:14;;;;;;;373.77;137.33;;;;;14.60;97807.00;;;;5085075;28;20214;-71
2023/10/06 02:51:06;;;;;;;374.07;135.00;;;;;14.60;97799.00;;;;5078698;28;20200;-71
2023/10/06 02:54:13;;;;;;;376.13;138.60;;;;;14.20;97804.00;;;;5079384;28;20208;-71
2023/10/06 02:57:04;;;;;;;378.13;136.67;;;;;14.50;97811.00;;;;5070576;28;20629;-71
2023/10/06 02:59:56;;;;;;;373.30;130.83;;;;;14.40;97803.00;;;;5078270;28;20208;-71
2023/10/06 03:02:45;;;;;;;372.90;133.50;;;;;14.50;97815.00;;;;5084188;28;20199;-71
2023/10/06 03:05:39;;;;;;;371.90;130.70;;;;;14.30;97811.00;;;;5073388;28;20223;-70
2023/10/06 03:08:30;;;;;;;374.10;130.60;;;;;14.40;97811.00;;;;5080128;28;20206;-71
2023/10/06 03:11:24;;;;;;;379.27;135.83;;;;;14.10;97807.00;;;;5073715;28;20203;-70
2023/10/06 03:14:14;;;;;;;370.87;124.67;;;;;14.40;97812.00;;;;5074365;28;20940;-71
2023/10/06 03:17:04;;;;;;;342.93;111.90;;;;;14.20;97803.00;;;;5085427;28;20611;-71
2023/10/06 03:20:08;;;;;;;341.67;107.47;;;;;13.70;97810.00;;;;5071430;28;20440;-70
2023/10/06 03:23:12;;;;;;;344.00;107.13;;;;;13.30;97810.00;;;;5084945;28;20696;-71
2023/10/06 03:26:06;;;;;;;355.63;124.23;;;;;13.30;97820.00;;;;5082076;28;20627;-70
2023/10/06 03:29:01;;;;;;;352.40;124.97;;;;;13.50;97814.00;;;;5085564;28;20211;-71
2023/10/06 03:31:56;;;;;;;371.40;128.07;;;;;13.80;97819.00;;;;5083761;28;20207;-71
2023/10/06 03:34:47;;;;;;;346.67;110.13;;;;;13.60;97823.00;;;;5078265;28;20199;-72
2023/10/06 03:37:51;;;;;;;355.40;124.10;;;;;13.60;97826.00;;;;5074550;28;20326;-71
2023/10/06 03:40:46;;;;;;;353.47;116.63;;;;;13.60;97824.00;;;;5080621;28;20205;-71
2023/10/06 03:43:40;;;;;;;340.03;102.93;;;;;13.40;97816.00;;;;5070690;28;20211;-71
2023/10/06 03:46:36;;;;;;;366.33;125.27;;;;;13.30;97827.00;;;;5079695;28;20487;-71
2023/10/06 03:49:26;;;;;;;352.37;116.97;;;;;13.50;97830.00;;;;5085524;28;20207;-72
2023/10/06 03:52:16;;;;;;;347.33;109.53;;;;;13.50;97830.00;;;;5078326;28;20434;-72
2023/10/06 03:55:06;;;;;;;366.03;121.20;;;;;13.50;97834.00;;;;5074295;28;20195;-71
2023/10/06 03:57:58;;;;;;;345.33;108.33;;;;;13.30;97834.00;;;;5082377;28;20592;-71
2023/10/06 04:00:51;;;;;;;345.07;118.07;;;;;12.90;97826.00;;;;5081942;28;20675;-70
2023/10/06 04:03:40;;;;;;;346.67;117.83;;;;;12.50;97827.00;;;;5089416;28;20224;-71
2023/10/06 04:06:35;;;;;;;345.30;105.67;;;;;12.70;97835.00;;;;5076607;28;20223;-71
2023/10/06 04:09:27;;;;;;;342.30;102.77;;;;;12.80;97838.00;;;;5079711;28;20443;-71
2023/10/06 04:12:18;;;;;;;346.60;106.73;;;;;13.10;97843.00;;;;5080498;28;20433;-71
2023/10/06 04:15:13;;;;;;;344.93;110.17;;;;;12.90;97833.00;;;;5085799;28;20421;-71
2023/10/06 04:18:02;;;;;;;350.23;110.87;;;;;12.80;97836.00;;;;5088462;28;20988;-71
2023/10/06 04:20:52;;;;;;;350.43;120.27;;;;;12.90;97843.00;;;;5077322;28;20207;-71
2023/10/06 04:23:42;;;;;;;343.57;119.80;;;;;12.70;97843.00;;;;5079927;28;20421;-70
2023/10/06 04:26:31;;;;;;;360.13;115.57;;;;;12.10;97844.00;;;;5079703;28;20234;-71
2023/10/06 04:29:23;;;;;;;367.93;119.53;;;;;12.40;97846.00;;;;5087258;28;20725;-71
2023/10/06 04:32:16;;;;;;;334.30;118.00;;;;;12.30;97842.00;;;;5077283;28;20285;-71
2023/10/06 04:35:10;;;;;;;368.87;115.17;;;;;12.70;97841.00;;;;5081896;28;20222;-70
2023/10/06 04:38:00;;;;;;;351.77;114.93;;;;;12.90;97846.00;;;;5086882;23;20227;-83
2023/10/06 04:40:49;;;;;;;323.33;120.83;;;;;12.80;97857.00;;;;5080121;28;20699;-82
2023/10/06 04:43:44;;;;;;;333.13;117.87;;;;;12.90;97843.00;;;;5076542;28;20203;-84
2023/10/06 04:46:35;;;;;;;355.63;113.00;;;;;12.90;97849.00;;;;5074009;28;20219;-81
2023/10/06 04:49:25;;;;;;;365.90;114.50;;;;;12.90;97854.00;;;;5080125;28;20224;-84
2023/10/06 04:52:14;;;;;;;340.80;123.03;;;;;12.70;97850.00;;;;5068006;28;20204;-83
2023/10/06 04:55:04;;;;;;;340.80;119.90;;;;;12.70;97857.00;;;;5088480;28;20203;-82
2023/10/06 04:57:55;;;;;;;353.00;116.27;;;;;12.30;97851.00;;;;5061351;28;20224;-83
2023/10/06 05:00:46;;;;;;;350.57;120.17;;;;;12.30;97840.00;;;;5072231;28;20573;-82
2023/10/06 05:03:42;;;;;;;348.63;117.60;;;;;12.10;97850.00;;;;5076502;28;20763;-82
2023/10/06 05:06:33;;;;;;;352.87;126.73;;;;;11.90;97848.00;;;;5066524;28;20220;-82
2023/10/06 05:09:22;;;;;;;299.23;122.70;;;;;11.80;97850.00;;;;5077149;28;20586;-82
2023/10/06 05:12:12;;;;;;;361.90;113.27;;;;;11.70;97845.00;;;;5088770;28;20211;-83
2023/10/06 05:15:01;;;;;;;365.90;113.63;;;;;11.70;97860.00;;;;5081932;28;20204;-82
2023/10/06 05:17:55;;;;;;;356.03;109.13;;;;;11.90;97863.00;;;;5073100;28;20592;-83
2023/10/06 05:20:44;;;;;;;359.77;104.90;;;;;12.00;97864.00;;;;5070897;28;20711;-82
2023/10/06 05:23:35;;;;;;;354.90;103.97;;;;;11.90;97868.00;;;;5075219;28;20212;-82
2023/10/06 05:26:24;;;;;;;372.33;113.97;;;;;12.20;97868.00;;;;5069801;28;20235;-82
2023/10/06 05:29:14;;;;;;;350.30;109.43;;;;;11.90;97866.00;;;;5069717;28;20204;-82
2023/10/06 05:32:03;;;;;;;352.23;110.17;;;;;12.30;97868.00;;;;5076185;28;20742;-82
2023/10/06 05:34:52;;;;;;;366.00;113.53;;;;;12.30;97870.00;;;;5066421;28;20205;-84
2023/10/06 05:37:43;;;;;;;357.40;106.10;;;;;12.50;97880.00;;;;5073630;28;20231;-81
2023/10/06 05:40:34;;;;;;;357.97;108.77;;;;;12.50;97886.00;;;;5071704;28;20211;-83
2023/10/06 05:43:28;;;;;;;232.03;115.57;;;;;12.60;97893.00;;;;5083267;28;20196;-82
2023/10/06 05:46:17;;;;;;;227.90;120.10;;;;;12.60;97897.00;;;;5077393;28;20223;-82
2023/10/06 05:49:11;;;;;;;;;;;;;12.40;97896.00;;;;5075941;28;20203;-83
2023/10/06 05:52:00;;;;;;;212.47;111.93;;;;;12.50;97904.00;;;;5069635;28;20594;-81
2023/10/06 05:54:49;;;;;;;216.07;114.00;;;;;12.60;97904.00;;;;5068758;28;20201;-81
2023/10/06 05:57:48;;;;;;;211.43;111.87;;;;;12.70;97916.00;;;;5057612;28;20716;-83
2023/10/06 06:00:43;;;;;;;232.40;125.70;;;;;12.70;97915.00;;;;5058732;28;20207;-81
2023/10/06 06:03:33;;;;;;;225.43;119.93;;;;;12.80;97928.00;;;;5059734;28;20208;-83
2023/10/06 06:06:24;;;;;;;234.67;124.67;;;;;12.80;97926.00;;;;5056337;28;20227;-83
2023/10/06 06:09:15;;;;;;;228.97;122.07;;;;;12.80;97932.00;;;;5054356;28;20208;-81
2023/10/06 06:12:05;;;;;;;223.97;118.50;;;;;13.10;97930.00;;;;5053431;28;20203;-83
2023/10/06 06:14:56;;;;;;;234.73;122.20;;;;;13.00;97924.00;;;;5060515;28;20208;-83
2023/10/06 06:17:45;;;;;;;235.30;120.63;;;;;13.30;97935.00;;;;5058983;28;20229;-82
2023/10/06 06:20:38;;;;;;;228.70;118.70;;;;;13.30;97931.00;;;;5064799;28;20203;-83
2023/10/06 06:23:27;;;;;;;252.97;128.77;;;;;13.20;97934.00;;;;5059477;28;20204;-82
2023/10/06 06:26:17;;;;;;;251.20;126.73;;;;;13.00;97939.00;;;;5058590;28;20226;-83
2023/10/06 06:29:08;;;;;;;271.60;133.07;;;;;13.30;97946.00;;;;5054262;28;20212;-83
2023/10/06 06:31:59;;;;;;;263.57;132.93;;;;;13.50;97950.00;;;;5057460;28;20208;-83
2023/10/06 06:34:48;;;;;;;254.93;129.37;;;;;14.00;97954.00;;;;5058143;28;20593;-82
2023/10/06 06:37:37;;;;;;;265.70;129.83;;;;;14.10;97957.00;;;;5058035;28;20378;-83
2023/10/06 06:40:28;;;;;;;264.83;132.10;;;;;14.40;97963.00;;;;5064684;28;20199;-83
2023/10/06 06:43:19;;;;;;;270.97;136.30;;;;;14.30;97964.00;;;;5061127;28;20200;-83
2023/10/06 06:46:09;;;;;;;274.87;135.43;;;;;14.70;97969.00;;;;5057899;28;20234;-82
2023/10/06 06:49:01;;;;;;;272.73;133.50;;;;;14.90;97972.00;;;;5073603;28;20233;-83
2023/10/06 06:51:52;;;;;;;288.67;139.57;;;;;15.00;97977.00;;;;5074700;28;20214;-82
2023/10/06 06:54:46;;;;;;;299.77;145.77;;;;;15.10;97977.00;;;;5068263;28;20212;-84
2023/10/06 06:57:35;;;;;;;294.93;144.50;;;;;15.20;97979.00;;;;5065898;28;20228;-83
2023/10/06 07:00:25;;;;;;;297.90;146.03;;;;;15.00;97981.00;;;;5066201;28;20219;-85
2023/10/06 07:03:15;;;;;;;309.87;149.73;;;;;14.90;97976.00;;;;5063884;28;20197;-84
2023/10/06 07:06:14;;;;;;;306.07;147.00;;;;;15.10;97976.00;;;;5061565;28;20230;-84
2023/10/06 07:09:12;;;;;;;301.10;150.23;;;;;15.20;97983.00;;;;5062667;28;20604;-84
2023/10/06 07:12:03;;;;;;;301.23;149.40;;;;;15.30;97982.00;;;;5066798;28;20211;-85
2023/10/06 07:14:52;;;;;;;304.37;152.87;;;;;15.30;97983.00;;;;5063031;28;20210;-84
2023/10/06 07:17:45;;;;;;;304.20;154.30;;;;;15.10;97983.00;;;;5067921;28;20234;-83
2023/10/06 07:20:34;;;;;;;298.83;148.80;;;;;15.10;97981.00;;;;5063461;28;22217;-83
2023/10/06 07:23:25;;;;;;;319.80;158.67;;;;;15.20;97986.00;;;;5065046;28;20214;-83
2023/10/06 07:26:14;;;;;;;301.80;151.50;;;;;15.40;97981.00;;;;5063576;28;20197;-82
2023/10/06 07:29:05;;;;;;;296.77;149.83;;;;;15.40;97983.00;;;;5066914;28;20243;-83
2023/10/06 07:31:54;;;;;;;291.47;151.87;;;;;15.60;97983.00;;;;5063153;28;21506;-84
2023/10/06 07:34:44;;;;;;;295.20;153.43;;;;;15.90;97986.00;;;;5059377;28;20231;-83
2023/10/06 07:37:33;;;;;;;305.60;160.47;;;;;15.70;97982.00;;;;5063372;28;20832;-84
2023/10/06 07:40:27;;;;;;;306.13;162.33;;;;;15.90;97986.00;;;;5058675;28;21054;-83
2023/10/06 07:43:17;;;;;;;311.93;160.17;;;;;16.00;97979.00;;;;5062891;28;20219;-85
2023/10/06 07:46:07;;;;;;;308.20;160.93;;;;;16.10;97972.00;;;;5058831;28;20211;-82
2023/10/06 07:48:57;;;;;;;321.63;165.33;;;;;16.10;97974.00;;;;5058482;28;20232;-82
2023/10/06 07:51:46;;;;;;;314.77;158.77;;;;;16.00;97985.00;;;;5066064;28;20199;-83
2023/10/06 07:54:36;;;;;;;316.37;162.80;;;;;15.80;97984.00;;;;5066514;28;20196;-82
2023/10/06 07:57:31;;;;;;;325.90;171.00;;;;;16.00;97987.00;;;;5063723;28;20224;-82
2023/10/06 08:00:27;;;;;;;338.63;175.57;;;;;16.00;97987.00;;;;5058369;28;20241;-83
2023/10/06 08:03:16;;;;;;;316.27;164.63;;;;;16.20;97989.00;;;;5076520;28;20203;-82
2023/10/06 08:06:06;;;;;;;310.00;164.47;;;;;16.30;97991.00;;;;5079069;28;20661;-83
2023/10/06 08:08:55;;;;;;;313.30;163.90;;;;;16.30;97989.00;;;;5075077;28;20234;-84
2023/10/06 08:11:45;;;;;;;303.07;162.27;;;;;16.60;97985.00;;;;5071844;28;20211;-82
2023/10/06 08:14:37;;;;;;;316.13;165.60;;;;;17.20;97991.00;;;;5079892;28;20200;-83
2023/10/06 08:17:27;;;;;;;323.27;169.20;;;;;17.50;97986.00;;;;5076763;28;20219;-83
2023/10/06 08:20:16;;;;;;;326.53;175.37;;;;;17.90;97987.00;;;;5080559;28;20207;-83
2023/10/06 08:23:06;;;;;;;329.37;177.40;;;;;18.10;97990.00;;;;5074642;28;20214;-84
2023/10/06 08:25:57;;;;;;;332.50;185.30;;;;;18.40;97991.00;;;;5075904;28;20232;-85
2023/10/06 08:28:49;;;;;;;340.67;196.53;;;;;18.50;97996.00;;;;5080747;28;20227;-85
2023/10/06 08:31:39;;;;;;;337.80;193.00;;;;;18.70;97995.00;;;;5082640;28;20215;-85
2023/10/06 08:34:30;;;;;;;353.57;207.60;;;;;18.90;97994.00;;;;5085456;28;20210;-83
2023/10/06 08:37:19;;;;;;;358.43;216.40;;;;;18.80;97989.00;;;;5090318;28;20231;-84
2023/10/06 08:40:16;;;;;;;348.53;209.67;;;;;19.30;97987.00;;;;5074070;28;20206;-82
2023/10/06 08:43:08;;;;;;;350.30;215.40;;;;;19.50;97982.00;;;;5083373;28;20214;-83
2023/10/06 08:45:59;;;;;;;352.70;214.23;;;;;19.70;97986.00;;;;5077305;28;20701;-86
2023/10/06 08:48:50;;;;;;;353.80;225.40;;;;;19.70;97992.00;;;;5072124;28;20227;-84
2023/10/06 08:51:40;;;;;;;356.23;228.43;;;;;19.70;97992.00;;;;5084766;28;20206;-85
2023/10/06 08:54:30;;;;;;;374.57;239.57;;;;;20.10;97998.00;;;;5075464;28;20577;-84
2023/10/06 08:57:19;;;;;;;374.60;247.30;;;;;20.50;97994.00;;;;5071883;28;20224;-84
2023/10/06 09:00:10;;;;;;;373.70;243.67;;;;;20.80;97987.00;;;;5082489;28;20220;-84
2023/10/06 09:03:07;;;;;;;365.23;241.73;;;;;20.40;97989.00;;;;5074497;28;20200;-85
2023/10/06 09:05:57;;;;;;;377.80;248.57;;;;;20.30;97988.00;;;;5076313;28;20698;-83
2023/10/06 09:08:49;;;;;;;376.40;250.90;;;;;21.00;97989.00;;;;5071521;28;20224;-86
2023/10/06 09:11:39;;;;;;;382.70;259.90;;;;;21.20;97974.00;;;;5076323;28;20210;-84
2023/10/06 09:14:28;;;;;;;392.33;270.23;;;;;21.30;97979.00;;;;5077670;28;20196;-84
2023/10/06 09:17:31;;;;;;;392.57;267.37;;;;;21.50;97968.00;;;;5067126;28;20238;-84
2023/10/06 09:20:30;;;;;;;393.50;275.60;;;;;21.50;97962.00;;;;5082173;28;20728;-85
2023/10/06 09:23:36;;;;;;;392.23;274.63;;;;;21.90;97964.00;;;;5082666;28;20234;-85
2023/10/06 09:26:30;;;;;;;392.63;280.40;;;;;22.00;97962.00;;;;5083491;28;20204;-84
2023/10/06 09:29:31;;;;;;;394.73;285.07;;;;;21.70;97954.00;;;;5085256;28;20254;-83
2023/10/06 09:32:21;;;;;;;397.10;290.40;;;;;21.90;97950.00;;;;5079704;28;20207;-83
2023/10/06 09:35:20;;;;;;;395.37;288.37;;;;;22.10;97944.00;;;;5082313;28;20208;-83
2023/10/06 09:38:13;;;;;;;389.03;287.97;;;;;22.50;97941.00;;;;5080159;28;20227;-86
2023/10/06 09:41:05;;;;;;;393.87;292.03;;;;;22.80;97942.00;;;;5082452;28;20250;-84
2023/10/06 09:43:55;;;;;;;392.60;293.17;;;;;23.00;97935.00;;;;5087847;28;20203;-86
2023/10/06 09:46:45;;;;;;;389.13;296.20;;;;;23.00;97930.00;;;;5077392;28;20204;-85
2023/10/06 09:49:37;;;;;;;399.30;309.93;;;;;23.30;97936.00;;;;5089648;28;20220;-84
2023/10/06 09:52:28;;;;;;;403.90;322.23;;;;;23.40;97936.00;;;;5083895;28;20207;-85
2023/10/06 09:55:19;;;;;;;404.87;317.10;;;;;23.50;97928.00;;;;5081755;28;20972;-85
2023/10/06 09:58:10;;;;;;;395.67;320.73;;;;;23.60;97924.00;;;;5078779;28;20660;-86
2023/10/06 10:01:00;;;;;;;397.97;325.87;;;;;24.00;97923.00;;;;5077000;28;20582;-85
2023/10/06 10:03:50;;;;;;;404.50;332.63;;;;;24.20;97933.00;;;;5091502;28;20214;-86
2023/10/06 10:06:43;;;;;;;407.83;334.50;;;;;24.30;97922.00;;;;5088324;28;20207;-84
2023/10/06 10:09:35;;;;;;;419.97;349.07;;;;;24.20;97915.00;;;;5069954;28;20224;-85
2023/10/06 10:12:35;;;;;;;414.17;343.20;;;;;24.30;97907.00;;;;5066035;28;20231;-84
2023/10/06 10:15:37;;;;;;;419.10;355.57;;;;;24.10;97904.00;;;;5066366;28;20275;-84
2023/10/06 10:18:29;;;;;;;415.73;361.37;;;;;24.30;97898.00;;;;5068572;28;20212;-87
2023/10/06 10:21:19;;;;;;;414.20;358.80;;;;;24.50;97901.00;;;;5059524;28;20231;-86
2023/10/06 10:24:12;;;;;;;425.07;371.47;;;;;24.90;97891.00;;;;5062166;28;20224;-85
2023/10/06 10:27:23;;;;;;;440.77;392.53;;;;;25.40;97896.00;;;;5056029;28;20282;-88
2023/10/06 10:30:14;;;;;;;454.07;405.70;;;;;25.50;97891.00;;;;5059318;28;20200;-87
2023/10/06 10:33:08;;;;;;;463.10;415.27;;;;;26.00;97878.00;;;;5063981;28;20218;-86
2023/10/06 10:36:22;;;;;;;491.87;441.93;;;;;26.40;97877.00;;;;5062183;28;20212;-85
2023/10/06 10:39:16;;;;;;;510.53;460.47;;;;;26.50;97876.00;;;;5058432;28;20214;-86
2023/10/06 10:42:06;;;;;;;529.03;478.10;;;;;26.50;97892.00;;;;5060884;28;20208;-87
2023/10/06 10:45:25;;;;;;;537.50;486.63;;;;;26.30;97890.00;;;;5071900;28;20220;-84
2023/10/06 10:48:18;;;;;;;541.20;490.53;;;;;26.20;97870.00;;;;5054064;28;20242;-85
2023/10/06 10:51:12;;;;;;;547.43;496.50;;;;;26.40;97842.00;;;;5062304;28;20215;-85
2023/10/06 10:54:02;;;;;;;558.83;507.87;;;;;26.40;97846.00;;;;5063880;28;20207;-84
2023/10/06 10:56:53;;;;;;;559.27;508.50;;;;;27.10;97845.00;;;;5065345;28;20202;-85
2023/10/06 11:00:12;;;;;;;582.97;530.03;;;;;27.20;97849.00;;;;5069232;28;20589;-84
2023/10/06 11:03:05;;;;;;;572.67;521.77;;;;;27.30;97844.00;;;;5061153;28;20220;-85
2023/10/06 11:05:58;;;;;;;589.13;537.80;;;;;27.50;97847.00;;;;5060998;28;20578;-86
2023/10/06 11:08:47;;;;;;;590.40;538.80;;;;;27.50;97848.00;;;;5057551;28;20230;-85
2023/10/06 11:11:38;;;;;;;607.37;554.97;;;;;27.70;97842.00;;;;5071085;28;20209;-85
2023/10/06 11:14:28;;;;;;;623.73;570.47;;;;;28.10;97842.00;;;;5079456;28;20210;-84
2023/10/06 11:17:20;;;;;;;625.13;571.37;;;;;28.40;97883.00;;;;5073055;28;20282;-84
2023/10/06 11:20:15;;;;;;;612.97;560.87;;;;;26.70;97883.00;;;;5068915;28;20200;-85
2023/10/06 11:23:07;;;;;;;613.87;561.90;;;;;27.10;97836.00;;;;5070362;28;20226;-84
2023/10/06 11:25:56;;;;;;;606.97;555.17;;;;;27.70;97839.00;;;;5079252;28;20785;-86
2023/10/06 11:28:45;;;;;;;608.33;556.90;;;;;26.80;97828.00;;;;5093237;28;20226;-86
2023/10/06 11:31:34;;;;;;;611.63;559.53;;;;;27.30;97819.00;;;;5095130;28;20215;-86
2023/10/06 11:34:24;;;;;;;614.37;561.87;;;;;28.60;97809.00;;;;5091507;28;20700;-86
2023/10/06 11:37:13;;;;;;;624.97;572.33;;;;;28.70;97817.00;;;;5085114;28;20240;-85
2023/10/06 11:40:04;;;;;;;630.27;578.17;;;;;29.20;97841.00;;;;5080172;28;20214;-87
2023/10/06 11:42:53;;;;;;;649.93;597.40;;;;;29.20;97810.00;;;;5080521;28;20218;-84
2023/10/06 11:45:46;;;;;;;659.77;607.10;;;;;29.40;97813.00;;;;5078787;28;20206;-85
2023/10/06 11:48:35;;;;;;;673.63;620.00;;;;;29.00;97803.00;;;;5091310;28;20696;-84
2023/10/06 11:51:25;;;;;;;679.33;625.53;;;;;29.70;97798.00;;;;5088997;28;20241;-86
2023/10/06 11:54:14;;;;;;;688.03;633.40;;;;;28.00;97777.00;;;;5068893;28;20208;-82
2023/10/06 11:57:05;;;;;;;686.80;632.63;;;;;27.80;97772.00;;;;5065536;28;20223;-86
2023/10/06 11:59:57;;;;;;;685.10;630.77;;;;;29.30;97765.00;;;;5066752;28;20233;-87
2023/10/06 12:02:49;;;;;;;683.73;630.00;;;;;28.10;97766.00;;;;5069503;28;20228;-84
2023/10/06 12:05:41;;;;;;;686.60;632.87;;;;;29.50;97760.00;;;;5068169;28;20212;-85
2023/10/06 12:08:30;;;;;;;688.70;634.87;;;;;30.30;97762.00;;;;5061080;28;20230;-86
2023/10/06 12:11:21;;;;;;;683.10;629.87;;;;;28.90;97761.00;;;;5061980;28;20207;-86
2023/10/06 12:14:11;;;;;;;692.38;638.35;;;;;29.60;97746.00;;;;5063595;28;20579;-85
2023/10/06 12:17:00;;;;;;;692.53;639.45;;;;;30.20;97744.00;;;;5066136;28;20660;-85
2023/10/06 12:19:49;;;;;;;700.88;647.20;;;;;30.10;97744.00;;;;5071820;28;20314;-85
2023/10/06 12:22:39;;;;;;;712.72;657.92;;;;;30.70;97738.00;;;;5071069;28;20209;-85
2023/10/06 12:25:29;;;;;;;;;;;;;31.20;97742.00;;;;5074643;28;20051;-85
2023/10/06 12:28:18;;;;;;;;;;;;;31.50;97741.00;;;;5068064;28;19928;-85
2023/10/06 12:31:08;;;;;;;;;;;;;31.10;97737.00;;;;5062786;28;19921;-85
2023/10/06 12:34:03;;;;;;;;;;;;;29.20;97730.00;;;;5061724;28;19929;-84
2023/10/06 12:36:52;;;;;;;;;;;;;28.60;97724.00;;;;5062509;28;19925;-83
2023/10/06 12:39:45;;;;;;;;;;;;;30.70;97717.00;;;;5062946;28;19928;-84
2023/10/06 12:42:34;;;;;;;;;;;;;28.70;97722.00;;;;5059990;28;19928;-87
2023/10/06 12:45:23;;;;;;;;;;;;;28.10;97710.00;;;;5062612;28;19920;-87
2023/10/06 12:48:13;;;;;;;;;;;;;28.80;97707.00;;;;5058149;28;19928;-85
2023/10/06 12:51:02;;;;;;;;;;;;;30.40;97705.00;;;;5059978;28;19942;-85
2023/10/06 12:53:51;;;;;;;;;;;;;31.50;97704.00;;;;5063941;28;19928;-83
2023/10/06 12:56:44;;;;;;;;;;;;;31.60;97692.00;;;;5058587;28;19928;-84
2023/10/06 12:59:33;;;;;;;;;;;;;32.00;97691.00;;;;5062606;28;19924;-84
2023/10/06 13:02:24;;;;;;;;;;;;;30.50;97682.00;;;;5080823;28;19927;-84
2023/10/06 13:05:16;;;;;;;;;;;;;30.10;97694.00;;;;5069968;28;19924;-83
2023/10/06 13:08:07;;;;;;;;;;;;;30.60;97699.00;;;;5066000;28;20026;-83
2023/10/06 13:11:02;;;;;;;;;;;;;31.10;97691.00;;;;5066557;28;19924;-83
2023/10/06 13:13:52;;;;;;;;;;;;;32.20;97702.00;;;;5069060;28;19921;-84
2023/10/06 13:16:41;;;;;;;;;;;;;32.70;97691.00;;;;5067971;28;19925;-86
2023/10/06 13:19:30;;;;;;;;;;;;;33.00;97698.00;;;;5074468;28;19927;-84
2023/10/06 13:22:20;;;;;;;;;;;;;33.20;97695.00;;;;5080618;28;20274;-85
2023/10/06 13:25:10;;;;;;;;;;;;;33.80;97700.00;;;;5074906;28;19920;-86
2023/10/06 13:28:00;;;;;;;;;;;;;33.20;97704.00;;;;5075658;28;19924;-86
2023/10/06 13:30:51;;;;;;;;;;;;;34.00;97699.00;;;;5077882;28;20293;-86
2023/10/06 13:33:40;;;;;;;;;;;;;34.50;97691.00;;;;5070098;28;20308;-85
2023/10/06 13:36:30;;;;;;;;;;;;;34.10;97687.00;;;;5076325;28;19927;-83
2023/10/06 13:39:24;;;;;;;;;;;;;33.70;97681.00;;;;5075766;28;19924;-85
2023/10/06 13:42:15;;;;;;;;;;;;;34.10;97674.00;;;;5075217;28;19924;-84
2023/10/06 13:45:12;;;;;;;;;;;;;33.50;97673.00;;;;5078518;28;19989;-84
2023/10/06 13:48:03;;;;;;;;;;;;;34.30;97682.00;;;;5081835;28;19931;-86
2023/10/06 13:50:57;;;;;;;;;;;;;34.00;97674.00;;;;5067355;28;19931;-86
2023/10/06 13:53:46;;;;;;;;;;;;;34.30;97684.00;;;;5070962;28;19920;-85